Time;durP1;ratioP1;P1;durP2;ratioP2;P2;SDS_P1;SDS_P2;PMS_P1;PMS_P2;Temp;Humidity;BMP_temperature;BMP_pressure;BME280_temperature;BME280_humidity;BME280_pressure;Samples;Min_cycle;Max_cycle;Signal;HPM_P1;HPM_P2
2023/11/18 00:00:12;;;;;;;;;;;7.70;93.80;;;;;;4923508;29;19911;-86
2023/11/18 00:02:38;;;;;;;;;;;7.70;93.70;;;;;;4926333;29;20673;-87
2023/11/18 00:05:04;;;;;;;;;;;7.80;93.60;;;;;;4941153;29;19907;-86
2023/11/18 00:07:32;;;;;;;;;;;7.70;93.60;;;;;;4932102;29;20385;-86
2023/11/18 00:09:57;;;;;;;;;;;7.80;93.60;;;;;;4942675;29;19914;-86
2023/11/18 00:12:24;;;;;;;;;;;7.80;93.60;;;;;;4932221;29;20408;-85
2023/11/18 00:14:50;;;;;;;;;;;7.80;93.70;;;;;;4932363;29;19994;-86
2023/11/18 00:17:15;;;;;;;;;;;7.70;93.60;;;;;;4932469;28;20329;-88
2023/11/18 00:19:42;;;;;;;;;;;7.70;93.70;;;;;;4932502;29;19921;-85
2023/11/18 00:22:08;;;;;;;;;;;7.60;93.70;;;;;;4935868;29;19975;-87
2023/11/18 00:24:36;;;;;;;;;;;7.50;93.80;;;;;;4925537;29;20584;-86
2023/11/18 00:27:08;;;;;;;;;;;7.40;94.00;;;;;;4927220;29;19962;-86
2023/11/18 00:29:34;;;;;;;;;;;7.40;94.20;;;;;;4931481;29;19914;-88
2023/11/18 00:32:00;;;;;;;;;;;7.40;94.30;;;;;;4932868;29;20002;-89
2023/11/18 00:34:25;;;;;;;;;;;7.50;94.40;;;;;;4934661;29;19922;-87
2023/11/18 00:36:51;;;;;;;;;;;7.40;94.40;;;;;;4933537;29;20327;-87
2023/11/18 00:39:17;;;;;;;;;;;7.50;94.40;;;;;;4931120;29;20408;-87
2023/11/18 00:41:43;;;;;;;;;;;7.40;94.30;;;;;;4935641;29;19910;-88
2023/11/18 00:44:08;;;;;;;;;;;7.30;94.40;;;;;;4929315;29;19917;-86
2023/11/18 00:46:36;;;;;;;;;;;7.40;94.60;;;;;;4953009;28;20560;-86
2023/11/18 00:49:02;;;;;;;;;;;7.40;94.60;;;;;;4937786;29;19914;-88
2023/11/18 00:51:27;;;;;;;;;;;7.40;94.50;;;;;;4937505;28;19910;-87
2023/11/18 00:53:54;;;;;;;;;;;7.40;94.60;;;;;;4934299;28;19911;-86
2023/11/18 00:56:21;;;;;;;;;;;7.40;94.60;;;;;;4938064;29;19915;-87
2023/11/18 00:58:47;;;;;;;;;;;7.40;94.60;;;;;;4940950;29;19917;-85
2023/11/18 01:01:12;;;;;;;;;;;7.30;94.60;;;;;;4944971;29;19919;-83
2023/11/18 01:03:38;;;;;;;;;;;7.40;94.60;;;;;;4958220;29;19930;-85
2023/11/18 01:06:06;;;;;;;;;;;7.30;94.60;;;;;;4957723;28;19918;-87
2023/11/18 01:08:31;;;;;;;;;;;7.30;94.80;;;;;;4937208;29;19918;-87
2023/11/18 01:10:57;;;;;;;;;;;7.30;94.80;;;;;;4950789;29;19899;-85
2023/11/18 01:13:22;;;;;;;;;;;7.30;94.80;;;;;;4962481;28;19902;-85
2023/11/18 01:15:48;;;;;;;;;;;7.30;95.00;;;;;;4956863;29;19926;-86
2023/11/18 01:18:14;;;;;;;;;;;7.30;94.90;;;;;;4946401;29;19910;-90
2023/11/18 01:20:39;;;;;;;;;;;7.40;94.90;;;;;;4944522;29;19915;-87
2023/11/18 01:23:04;;;;;;;;;;;7.30;95.00;;;;;;4938723;29;20495;-87
2023/11/18 01:25:30;;;;;;;;;;;7.30;95.00;;;;;;4936459;29;19922;-89
2023/11/18 01:27:55;;;;;;;;;;;7.40;95.00;;;;;;4939213;29;20039;-89
2023/11/18 01:30:23;;;;;;;;;;;7.30;95.00;;;;;;4939048;29;19911;-89
2023/11/18 01:32:49;;;;;;;;;;;7.30;95.00;;;;;;4935998;29;19911;-90
2023/11/18 01:35:14;;;;;;;;;;;7.20;95.00;;;;;;4940313;29;19917;-88
2023/11/18 01:37:40;;;;;;;;;;;7.30;95.10;;;;;;4935093;29;20428;-89
2023/11/18 01:40:07;;;;;;;;;;;7.20;95.10;;;;;;4942239;29;20013;-89
2023/11/18 01:42:32;;;;;;;;;;;7.30;95.10;;;;;;4943786;28;19919;-88
2023/11/18 01:44:59;;;;;;;;;;;7.30;95.10;;;;;;4936913;29;19910;-89
2023/11/18 01:47:26;;;;;;;;;;;7.30;95.10;;;;;;4943791;29;20373;-89
2023/11/18 01:49:52;;;;;;;;;;;7.40;95.00;;;;;;4940389;28;19915;-90
2023/11/18 01:52:18;;;;;;;;;;;7.40;94.90;;;;;;4949438;29;19992;-90
2023/11/18 01:54:44;;;;;;;;;;;7.30;94.80;;;;;;4937982;29;19911;-88
2023/11/18 01:57:10;;;;;;;;;;;7.30;94.90;;;;;;4939556;29;19917;-87
2023/11/18 01:59:37;;;;;;;;;;;7.30;95.00;;;;;;4950867;28;20281;-89
2023/11/18 02:02:04;;;;;;;;;;;7.30;95.00;;;;;;4937983;29;19982;-90
2023/11/18 02:04:30;;;;;;;;;;;7.30;95.00;;;;;;4938624;29;19914;-90
2023/11/18 02:06:56;;;;;;;;;;;7.30;95.00;;;;;;4935679;29;20412;-90
2023/11/18 02:09:31;;;;;;;;;;;7.30;95.10;;;;;;4938058;28;19911;-90
2023/11/18 02:12:20;;;;;;;;;;;7.20;95.20;;;;;;4935290;29;20010;-91
2023/11/18 02:14:45;;;;;;;;;;;7.30;95.20;;;;;;4931019;29;19926;-89
2023/11/18 02:17:13;;;;;;;;;;;7.40;95.20;;;;;;4925134;29;19911;-89
2023/11/18 02:19:40;;;;;;;;;;;7.30;95.10;;;;;;4932125;29;19914;-90
2023/11/18 02:22:07;;;;;;;;;;;7.20;95.20;;;;;;4934492;29;19918;-89
2023/11/18 02:24:36;;;;;;;;;;;7.20;95.40;;;;;;4952513;28;20012;-88
2023/11/18 02:27:03;;;;;;;;;;;7.20;95.50;;;;;;4935290;29;20277;-89
2023/11/18 02:29:32;;;;;;;;;;;7.10;95.40;;;;;;4936418;28;19911;-87
2023/11/18 02:32:01;;;;;;;;;;;7.20;95.60;;;;;;4938075;29;19915;-88
2023/11/18 02:34:28;;;;;;;;;;;7.10;95.60;;;;;;4947443;28;19918;-87
2023/11/18 02:36:59;;;;;;;;;;;7.20;95.80;;;;;;4935389;29;19935;-87
2023/11/18 02:39:31;;;;;;;;;;;7.20;95.90;;;;;;4936648;28;19967;-88
2023/11/18 02:41:57;;;;;;;;;;;7.20;95.80;;;;;;4932936;29;19965;-88
2023/11/18 02:44:25;;;;;;;;;;;7.20;95.80;;;;;;4937397;29;19972;-88
2023/11/18 02:46:50;;;;;;;;;;;7.20;95.90;;;;;;4936210;29;19918;-88
2023/11/18 02:49:17;;;;;;;;;;;7.20;95.90;;;;;;4928593;29;19911;-89
2023/11/18 02:51:47;;;;;;;;;;;7.20;96.00;;;;;;4935243;29;20276;-86
2023/11/18 02:54:13;;;;;;;;;;;7.20;96.00;;;;;;4935259;28;19918;-88
2023/11/18 02:56:38;;;;;;;;;;;7.20;96.00;;;;;;4934682;29;19937;-88
2023/11/18 02:59:07;;;;;;;;;;;7.20;96.10;;;;;;4933471;29;19911;-88
2023/11/18 03:01:35;;;;;;;;;;;7.10;96.20;;;;;;4933921;29;19954;-88
2023/11/18 03:04:02;;;;;;;;;;;7.20;96.20;;;;;;4931368;29;19927;-87
2023/11/18 03:06:27;;;;;;;;;;;7.20;96.20;;;;;;4939372;28;20013;-84
2023/11/18 03:08:53;;;;;;;;;;;7.30;96.10;;;;;;4932859;29;19948;-87
2023/11/18 03:11:22;;;;;;;;;;;7.20;96.00;;;;;;4930710;29;19911;-87
2023/11/18 03:13:47;;;;;;;;;;;7.20;96.10;;;;;;4938792;29;21431;-87
2023/11/18 03:16:13;;;;;;;;;;;7.30;96.20;;;;;;4930502;29;19915;-85
2023/11/18 03:18:39;;;;;;;;;;;7.30;96.10;;;;;;4929951;29;19911;-86
2023/11/18 03:21:06;;;;;;;;;;;7.20;96.00;;;;;;4939464;29;20054;-85
2023/11/18 03:23:32;;;;;;;;;;;7.30;96.10;;;;;;4935752;29;19946;-88
2023/11/18 03:25:58;;;;;;;;;;;7.20;96.10;;;;;;4931309;29;20013;-88
2023/11/18 03:28:23;;;;;;;;;;;7.20;96.20;;;;;;4930868;29;20354;-85
2023/11/18 03:30:49;;;;;;;;;;;7.30;96.30;;;;;;4934126;29;19962;-90
2023/11/18 03:33:14;;;;;;;;;;;7.30;96.30;;;;;;4931033;28;19911;-88
2023/11/18 03:35:40;;;;;;;;;;;7.30;96.20;;;;;;4933627;29;20480;-89
2023/11/18 03:38:05;;;;;;;;;;;7.30;96.10;;;;;;4941350;29;19997;-89
2023/11/18 03:40:31;;;;;;;;;;;7.40;96.10;;;;;;4933034;29;19914;-88
2023/11/18 03:42:58;;;;;;;;;;;7.30;95.90;;;;;;4938627;29;19993;-88
2023/11/18 03:45:24;;;;;;;;;;;7.20;96.00;;;;;;4934339;29;19918;-88
2023/11/18 03:47:50;;;;;;;;;;;7.20;96.20;;;;;;4935539;29;19911;-89
2023/11/18 03:50:16;;;;;;;;;;;7.30;96.30;;;;;;4934742;29;19911;-91
2023/11/18 03:52:41;;;;;;;;;;;7.30;96.20;;;;;;4929616;29;19966;-91
2023/11/18 03:55:08;;;;;;;;;;;7.20;96.20;;;;;;4949348;28;19910;-88
2023/11/18 03:57:33;;;;;;;;;;;7.20;96.20;;;;;;4934883;29;19910;-91
2023/11/18 03:59:59;;;;;;;;;;;7.20;96.30;;;;;;4932504;29;19922;-93
2023/11/18 04:02:25;;;;;;;;;;;7.20;96.30;;;;;;4935257;29;20006;-91
2023/11/18 04:04:50;;;;;;;;;;;7.10;96.30;;;;;;4932138;29;19911;-91
2023/11/18 04:07:16;;;;;;;;;;;7.10;96.60;;;;;;4933814;29;19911;-88
2023/11/18 04:09:43;;;;;;;;;;;7.10;96.70;;;;;;4948192;29;20385;-89
2023/11/18 04:12:09;;;;;;;;;;;7.10;96.80;;;;;;4940467;28;19911;-91
2023/11/18 04:14:35;;;;;;;;;;;7.10;96.70;;;;;;4926310;29;19915;-90
2023/11/18 04:17:00;;;;;;;;;;;7.00;96.70;;;;;;4927199;29;20432;-90
2023/11/18 04:19:26;;;;;;;;;;;7.00;96.90;;;;;;4937340;29;19922;-90
2023/11/18 04:21:52;;;;;;;;;;;7.00;97.10;;;;;;4925012;29;19911;-91
2023/11/18 04:24:18;;;;;;;;;;;7.00;97.10;;;;;;4932757;29;19917;-89
2023/11/18 04:26:43;;;;;;;;;;;7.00;97.20;;;;;;4935561;29;20388;-89
2023/11/18 04:29:09;;;;;;;;;;;7.00;97.30;;;;;;4931736;29;20285;-89
2023/11/18 04:31:36;;;;;;;;;;;7.00;97.30;;;;;;4921812;29;20370;-88
2023/11/18 04:34:01;;;;;;;;;;;7.00;97.40;;;;;;4931581;29;19918;-92
2023/11/18 04:36:27;;;;;;;;;;;6.90;97.40;;;;;;4927574;29;19911;-89
2023/11/18 04:38:52;;;;;;;;;;;7.00;97.50;;;;;;4930115;29;19998;-87
2023/11/18 04:41:18;;;;;;;;;;;7.00;97.50;;;;;;4935330;28;19918;-93
2023/11/18 04:43:43;;;;;;;;;;;7.00;97.50;;;;;;4948111;29;20257;-93
2023/11/18 04:46:10;;;;;;;;;;;7.00;97.50;;;;;;4939443;29;19911;-88
2023/11/18 04:48:36;;;;;;;;;;;7.00;97.60;;;;;;4931228;29;19997;-88
2023/11/18 04:51:01;;;;;;;;;;;7.00;97.60;;;;;;4935758;29;19953;-87
2023/11/18 04:53:27;;;;;;;;;;;7.00;97.70;;;;;;4936823;29;19915;-87
2023/11/18 04:55:52;;;;;;;;;;;7.00;97.80;;;;;;4936041;29;19914;-90
2023/11/18 04:58:18;;;;;;;;;;;6.90;97.80;;;;;;4931071;29;19915;-91
2023/11/18 05:00:44;;;;;;;;;;;6.90;97.80;;;;;;4925606;29;19919;-91
2023/11/18 05:03:10;;;;;;;;;;;7.00;97.90;;;;;;4942726;29;19910;-91
2023/11/18 05:05:39;;;;;;;;;;;7.00;97.80;;;;;;4936637;29;19934;-88
2023/11/18 05:08:06;;;;;;;;;;;7.00;97.90;;;;;;4935203;29;19910;-89
2023/11/18 05:10:36;;;;;;;;;;;7.10;98.00;;;;;;4946792;28;19912;-90
2023/11/18 05:13:02;;;;;;;;;;;7.00;98.00;;;;;;4980547;28;19898;-89
2023/11/18 05:15:31;;;;;;;;;;;7.00;98.00;;;;;;4955869;28;20045;-90
2023/11/18 05:17:56;;;;;;;;;;;7.10;98.00;;;;;;4939625;29;19911;-89
2023/11/18 05:20:22;;;;;;;;;;;7.00;97.90;;;;;;4940264;28;19923;-90
2023/11/18 05:22:48;;;;;;;;;;;7.00;98.00;;;;;;4955318;28;19918;-90
2023/11/18 05:25:14;;;;;;;;;;;7.10;97.90;;;;;;4951161;28;19929;-90
2023/11/18 05:27:40;;;;;;;;;;;7.00;97.90;;;;;;4935145;29;20223;-91
2023/11/18 05:30:06;;;;;;;;;;;7.00;98.10;;;;;;4929944;29;19911;-91
2023/11/18 05:32:33;;;;;;;;;;;7.00;98.10;;;;;;4934456;29;19918;-90
2023/11/18 05:34:58;;;;;;;;;;;7.00;98.10;;;;;;4931940;29;19911;-90
2023/11/18 05:37:24;;;;;;;;;;;7.00;98.20;;;;;;4938346;29;19906;-89
2023/11/18 05:39:58;;;;;;;;;;;7.00;98.20;;;;;;4934078;29;20301;-90
2023/11/18 05:42:25;;;;;;;;;;;7.00;98.20;;;;;;4934703;29;20401;-90
2023/11/18 05:44:57;;;;;;;;;;;6.90;98.50;;;;;;4935950;29;20005;-91
2023/11/18 05:47:23;;;;;;;;;;;6.90;98.70;;;;;;4938145;29;19918;-91
2023/11/18 05:49:49;;;;;;;;;;;6.90;98.80;;;;;;4938157;29;19973;-91
2023/11/18 05:52:14;;;;;;;;;;;7.00;98.80;;;;;;4946252;29;19918;-90
2023/11/18 05:54:40;;;;;;;;;;;6.90;98.70;;;;;;4938043;29;20368;-90
2023/11/18 05:57:05;;;;;;;;;;;7.10;98.80;;;;;;4938075;29;20457;-89
2023/11/18 05:59:31;;;;;;;;;;;7.00;99.00;;;;;;4948175;29;19950;-89
2023/11/18 06:01:56;;;;;;;;;;;7.00;99.00;;;;;;4938403;28;20013;-89
2023/11/18 06:04:22;;;;;;;;;;;7.00;99.10;;;;;;4943809;29;19917;-90
2023/11/18 06:06:47;;;;;;;;;;;7.00;99.20;;;;;;4933947;28;20031;-89
2023/11/18 06:09:20;;;;;;;;;;;7.00;99.20;;;;;;4931814;29;19911;-88
2023/11/18 06:11:49;;;;;;;;;;;7.00;99.30;;;;;;4935151;29;19910;-89
2023/11/18 06:14:15;;;;;;;;;;;7.10;99.40;;;;;;4936381;29;20001;-89
2023/11/18 06:16:40;;;;;;;;;;;6.90;99.40;;;;;;4929940;29;20392;-90
2023/11/18 06:19:06;;;;;;;;;;;7.00;99.50;;;;;;4937930;29;20067;-90
2023/11/18 06:21:32;;;;;;;;;;;7.00;99.50;;;;;;4937955;29;19971;-90
2023/11/18 06:24:01;;;;;;;;;;;7.10;99.60;;;;;;4940397;29;19918;-92
2023/11/18 06:26:27;;;;;;;;;;;7.00;99.60;;;;;;4936073;29;19911;-89
2023/11/18 06:28:53;;;;;;;;;;;6.90;99.70;;;;;;4944827;29;20384;-91
2023/11/18 06:31:20;;;;;;;;;;;6.90;99.60;;;;;;4936051;29;19915;-91
2023/11/18 06:33:46;;;;;;;;;;;7.00;99.70;;;;;;4943120;29;19957;-89
2023/11/18 06:36:14;;;;;;;;;;;7.00;99.60;;;;;;4937076;28;20385;-89
2023/11/18 06:38:40;;;;;;;;;;;7.00;99.60;;;;;;4931367;29;19926;-90
2023/11/18 06:41:10;;;;;;;;;;;7.10;99.70;;;;;;4937054;29;19914;-89
2023/11/18 06:43:51;;;;;;;;;;;7.10;99.70;;;;;;4940425;29;19982;-88
2023/11/18 06:46:33;;;;;;;;;;;7.00;99.70;;;;;;4935812;29;19910;-90
2023/11/18 06:49:03;;;;;;;;;;;7.00;99.80;;;;;;4950685;29;19915;-88
2023/11/18 06:51:29;;;;;;;;;;;7.00;99.70;;;;;;4954352;28;19919;-86
2023/11/18 06:53:55;;;;;;;;;;;7.00;99.80;;;;;;4947886;29;19911;-86
2023/11/18 06:56:20;;;;;;;;;;;7.00;99.90;;;;;;4932407;29;19939;-89
2023/11/18 06:58:46;;;;;;;;;;;6.90;99.90;;;;;;4934069;29;19911;-90
2023/11/18 07:01:13;;;;;;;;;;;6.90;99.90;;;;;;4934669;29;19925;-90
2023/11/18 07:03:41;;;;;;;;;;;6.90;99.90;;;;;;4936597;29;20293;-87
2023/11/18 07:06:06;;;;;;;;;;;6.90;99.90;;;;;;4938285;29;19910;-90
2023/11/18 07:08:33;;;;;;;;;;;6.90;99.90;;;;;;4954005;28;19917;-89
2023/11/18 07:11:01;;;;;;;;;;;6.90;99.90;;;;;;4933448;29;19917;-89
2023/11/18 07:16:14;;;;;;;;;;;6.90;99.90;;;;;;4927658;29;20033;-90
2023/11/18 07:18:42;;;;;;;;;;;6.90;99.90;;;;;;4939659;29;19997;-89
2023/11/18 07:21:09;;;;;;;;;;;6.90;99.90;;;;;;4936263;29;20301;-87
2023/11/18 07:23:35;;;;;;;;;;;6.90;99.90;;;;;;4937380;29;19910;-88
2023/11/18 07:26:01;;;;;;;;;;;6.90;99.90;;;;;;4930907;29;19918;-90
2023/11/18 07:28:26;;;;;;;;;;;6.90;99.90;;;;;;4938069;29;19911;-88
2023/11/18 07:30:55;;;;;;;;;;;6.90;99.90;;;;;;4942329;29;19986;-88
2023/11/18 07:33:23;;;;;;;;;;;6.80;99.90;;;;;;4939246;29;19910;-89
2023/11/18 07:35:49;;;;;;;;;;;6.90;99.90;;;;;;4942498;28;20403;-89
2023/11/18 07:38:15;;;;;;;;;;;7.00;99.90;;;;;;4950463;29;19911;-90
2023/11/18 07:40:42;;;;;;;;;;;7.00;99.90;;;;;;4932347;29;20464;-90
2023/11/18 07:43:14;;;;;;;;;;;7.00;99.90;;;;;;4938122;29;19925;-89
2023/11/18 07:45:40;;;;;;;;;;;7.00;99.90;;;;;;4940564;29;19910;-90
2023/11/18 07:48:06;;;;;;;;;;;7.00;99.90;;;;;;4933643;29;19918;-89
2023/11/18 07:50:40;;;;;;;;;;;7.00;99.90;;;;;;4938997;29;19917;-91
2023/11/18 07:53:06;;;;;;;;;;;7.00;99.90;;;;;;4933255;29;20490;-88
2023/11/18 07:55:39;;;;;;;;;;;7.10;99.90;;;;;;4940702;28;20369;-89
2023/11/18 07:58:11;;;;;;;;;;;7.10;99.90;;;;;;4943696;29;19969;-89
2023/11/18 08:00:40;;;;;;;;;;;7.00;99.90;;;;;;4929028;29;20004;-88
2023/11/18 08:03:11;;;;;;;;;;;7.10;99.90;;;;;;4932650;29;19926;-89
2023/11/18 08:05:36;;;;;;;;;;;7.10;99.90;;;;;;4935935;28;20042;-89
2023/11/18 08:08:02;;;;;;;;;;;7.00;99.90;;;;;;4942557;29;19946;-88
2023/11/18 08:10:28;;;;;;;;;;;7.10;99.90;;;;;;4940100;29;19914;-90
2023/11/18 08:12:54;;;;;;;;;;;7.10;99.90;;;;;;4948958;29;19910;-90
2023/11/18 08:15:20;;;;;;;;;;;7.10;99.90;;;;;;4936397;29;20317;-91
2023/11/18 08:17:45;;;;;;;;;;;7.00;99.90;;;;;;4952028;28;19910;-90
2023/11/18 08:20:14;;;;;;;;;;;7.00;99.90;;;;;;4939629;29;19914;-88
2023/11/18 08:22:43;;;;;;;;;;;7.00;99.90;;;;;;4937657;29;19911;-87
2023/11/18 08:25:12;;;;;;;;;;;7.10;99.90;;;;;;4936567;29;20373;-88
2023/11/18 08:27:39;;;;;;;;;;;7.10;99.90;;;;;;4944850;29;19917;-91
2023/11/18 08:30:10;;;;;;;;;;;7.10;99.90;;;;;;4929626;29;19918;-90
2023/11/18 08:32:36;;;;;;;;;;;7.10;99.90;;;;;;4934575;29;19917;-90
2023/11/18 08:35:06;;;;;;;;;;;7.10;99.90;;;;;;4940005;29;19974;-89
2023/11/18 08:37:32;;;;;;;;;;;7.10;99.90;;;;;;4939628;28;19937;-90
2023/11/18 08:39:58;;;;;;;;;;;7.10;99.90;;;;;;4931774;29;20079;-89
2023/11/18 08:42:24;;;;;;;;;;;7.20;99.90;;;;;;4938748;29;20418;-87
2023/11/18 08:44:49;;;;;;;;;;;7.10;99.90;;;;;;4933237;29;19915;-88
2023/11/18 08:47:15;;;;;;;;;;;7.10;99.90;;;;;;4940377;28;19917;-90
2023/11/18 08:49:42;;;;;;;;;;;7.10;99.90;;;;;;4946399;29;19910;-89
2023/11/18 08:52:09;;;;;;;;;;;7.20;99.90;;;;;;4947282;28;19921;-88
2023/11/18 08:54:42;;;;;;;;;;;7.20;99.90;;;;;;4932462;29;20386;-91
2023/11/18 08:57:23;;;;;;;;;;;7.20;99.90;;;;;;4946042;28;19930;-90
2023/11/18 08:59:49;;;;;;;;;;;7.30;99.90;;;;;;4932027;29;19915;-89
2023/11/18 09:02:17;;;;;;;;;;;7.20;99.90;;;;;;4935556;29;19914;-88
2023/11/18 09:04:43;;;;;;;;;;;7.20;99.90;;;;;;4944514;29;19911;-85
2023/11/18 09:07:09;;;;;;;;;;;7.30;99.90;;;;;;4948291;28;19934;-87
2023/11/18 09:09:35;;;;;;;;;;;7.30;99.90;;;;;;4942781;29;19911;-87
2023/11/18 09:12:02;;;;;;;;;;;7.30;99.90;;;;;;4933789;29;19961;-85
2023/11/18 09:14:28;;;;;;;;;;;7.30;99.90;;;;;;4937963;29;19941;-88
2023/11/18 09:16:58;;;;;;;;;;;7.40;99.90;;;;;;4941668;29;20524;-88
2023/11/18 09:19:24;;;;;;;;;;;7.50;99.90;;;;;;4945232;29;19945;-90
2023/11/18 09:21:51;;;;;;;;;;;7.50;99.90;;;;;;4943162;29;19979;-87
2023/11/18 09:24:19;;;;;;;;;;;7.40;99.80;;;;;;4947898;29;19922;-87
2023/11/18 09:30:06;;;;;;;;;;;7.50;99.90;;;;;;4937667;29;19917;-88
2023/11/18 09:32:34;;;;;;;;;;;7.60;99.90;;;;;;4954221;28;20435;-88
2023/11/18 09:35:08;;;;;;;;;;;7.60;99.70;;;;;;4953687;29;19907;-87
2023/11/18 09:37:34;;;;;;;;;;;7.60;99.70;;;;;;4937273;29;20343;-88
2023/11/18 09:40:11;;;;;;;;;;;7.70;99.70;;;;;;4941187;28;19911;-89
2023/11/18 09:42:38;;;;;;;;;;;7.70;99.60;;;;;;4944691;29;19977;-87
2023/11/18 09:45:13;;;;;;;;;;;7.70;99.50;;;;;;4939451;29;19907;-89
2023/11/18 09:47:43;;;;;;;;;;;7.70;99.50;;;;;;4947740;29;20001;-89
2023/11/18 09:50:10;;;;;;;;;;;7.70;99.40;;;;;;4939577;29;20308;-86
2023/11/18 09:52:41;;;;;;;;;;;7.80;99.40;;;;;;4941233;28;19907;-88
2023/11/18 09:55:19;;;;;;;;;;;7.80;99.40;;;;;;4935736;29;19906;-87
2023/11/18 09:57:57;;;;;;;;;;;7.80;99.40;;;;;;4949818;28;20381;-87
2023/11/18 10:00:32;;;;;;;;;;;7.80;99.40;;;;;;4943341;29;19915;-88
2023/11/18 10:03:00;;;;;;;;;;;7.90;99.30;;;;;;4934638;29;20005;-89
2023/11/18 10:05:26;;;;;;;;;;;7.90;99.20;;;;;;4937506;29;20430;-88
2023/11/18 10:07:52;;;;;;;;;;;7.80;99.20;;;;;;4939599;29;19911;-89
2023/11/18 10:10:20;;;;;;;;;;;7.80;99.20;;;;;;4935930;29;19971;-88
2023/11/18 10:12:51;;;;;;;;;;;7.90;99.30;;;;;;4941816;29;19911;-88
2023/11/18 10:15:18;;;;;;;;;;;7.90;99.20;;;;;;4937707;29;20587;-88
2023/11/18 10:17:55;;;;;;;;;;;7.90;99.10;;;;;;4940428;28;19910;-87
2023/11/18 10:20:25;;;;;;;;;;;7.80;99.20;;;;;;4944169;29;20285;-88
2023/11/18 10:23:11;;;;;;;;;;;7.90;99.30;;;;;;4936602;29;19911;-89
2023/11/18 10:25:41;;;;;;;;;;;7.90;99.30;;;;;;4933913;29;20223;-89
2023/11/18 10:28:09;;;;;;;;;;;7.90;99.30;;;;;;4936417;29;19910;-89
2023/11/18 10:30:47;;;;;;;;;;;7.90;99.30;;;;;;4943894;28;19921;-89
2023/11/18 10:33:14;;;;;;;;;;;8.00;99.20;;;;;;4927539;29;19918;-89
2023/11/18 10:35:48;;;;;;;;;;;8.00;99.10;;;;;;4929625;29;19917;-89
2023/11/18 10:38:16;;;;;;;;;;;8.10;98.90;;;;;;4929539;29;19930;-88
2023/11/18 10:40:42;;;;;;;;;;;8.10;98.80;;;;;;4934975;29;19914;-87
2023/11/18 10:43:09;;;;;;;;;;;8.10;98.80;;;;;;4938142;29;20289;-89
2023/11/18 10:45:41;;;;;;;;;;;8.10;98.80;;;;;;4938600;28;19919;-89
2023/11/18 10:48:06;;;;;;;;;;;8.10;99.10;;;;;;4935934;29;19910;-89
2023/11/18 10:50:32;;;;;;;;;;;8.10;98.90;;;;;;4944051;28;19958;-90
2023/11/18 10:53:02;;;;;;;;;;;8.10;98.90;;;;;;4932182;29;19914;-89
2023/11/18 10:55:43;;;;;;;;;;;8.10;98.90;;;;;;4933310;29;19993;-89
2023/11/18 10:58:09;;;;;;;;;;;8.10;99.00;;;;;;4932639;29;19918;-87
2023/11/18 11:00:51;;;;;;;;;;;8.10;99.00;;;;;;4935137;29;19911;-87
2023/11/18 11:03:18;;;;;;;;;;;8.00;99.20;;;;;;4936170;29;19910;-87
2023/11/18 11:05:43;;;;;;;;;;;8.00;99.40;;;;;;4938902;29;20001;-88
2023/11/18 11:08:12;;;;;;;;;;;8.00;99.50;;;;;;4937627;29;19989;-88
2023/11/18 11:10:41;;;;;;;;;;;8.00;99.60;;;;;;4935961;29;19915;-88
2023/11/18 11:13:07;;;;;;;;;;;8.10;99.60;;;;;;4935852;29;19990;-87
2023/11/18 11:15:36;;;;;;;;;;;8.10;99.60;;;;;;4938787;29;20385;-87
2023/11/18 11:18:15;;;;;;;;;;;8.10;99.70;;;;;;4941306;29;20396;-88
2023/11/18 11:21:03;;;;;;;;;;;8.20;99.70;;;;;;4937750;29;20448;-87
2023/11/18 11:23:49;;;;;;;;;;;8.20;99.70;;;;;;4934266;29;19910;-88
2023/11/18 11:26:27;;;;;;;;;;;8.10;99.80;;;;;;4941961;28;20482;-86
2023/11/18 11:29:12;;;;;;;;;;;8.10;99.80;;;;;;4937702;29;19926;-87
2023/11/18 11:31:38;;;;;;;;;;;8.10;99.80;;;;;;4954312;28;19934;-88
2023/11/18 11:34:07;;;;;;;;;;;8.10;99.90;;;;;;4957685;28;19907;-88
2023/11/18 11:36:43;;;;;;;;;;;8.10;99.90;;;;;;4938854;28;19914;-88
2023/11/18 11:39:15;;;;;;;;;;;8.10;99.90;;;;;;4944775;28;19920;-88
2023/11/18 11:41:50;;;;;;;;;;;8.10;99.90;;;;;;4934650;29;20002;-87
2023/11/18 11:44:19;;;;;;;;;;;8.10;99.90;;;;;;4946899;29;19917;-88
2023/11/18 11:46:45;;;;;;;;;;;8.10;99.90;;;;;;4937709;29;20009;-88
2023/11/18 11:49:20;;;;;;;;;;;8.10;99.90;;;;;;4944475;28;20002;-87
2023/11/18 11:51:55;;;;;;;;;;;8.00;99.90;;;;;;4936855;29;20038;-88
2023/11/18 11:54:30;;;;;;;;;;;8.00;99.90;;;;;;4935919;29;19910;-88
2023/11/18 11:56:59;;;;;;;;;;;8.00;99.90;;;;;;4936537;28;19911;-88
2023/11/18 11:59:41;;;;;;;;;;;8.00;99.90;;;;;;4929308;29;20369;-88
2023/11/18 12:02:09;;;;;;;;;;;8.00;99.90;;;;;;4934697;29;19918;-88
2023/11/18 12:04:37;;;;;;;;;;;8.00;99.90;;;;;;4940317;29;20337;-87
2023/11/18 12:07:04;;;;;;;;;;;8.00;99.90;;;;;;4933276;29;19918;-89
2023/11/18 12:09:32;;;;;;;;;;;8.00;99.90;;;;;;4933698;29;19911;-86
2023/11/18 12:11:59;;;;;;;;;;;8.00;99.90;;;;;;4934179;29;20009;-86
2023/11/18 12:17:09;;;;;;;;;;;8.10;99.90;;;;;;4941953;28;19915;-86
2023/11/18 12:19:46;;;;;;;;;;;8.00;99.90;;;;;;4944075;29;19953;-87
2023/11/18 12:22:18;;;;;;;;;;;8.10;99.90;;;;;;4946713;29;19914;-86
2023/11/18 12:24:46;;;;;;;;;;;8.10;99.90;;;;;;4931190;29;19944;-88
2023/11/18 12:27:13;;;;;;;;;;;8.20;99.90;;;;;;4935343;29;19962;-87
2023/11/18 12:29:45;;;;;;;;;;;8.10;99.90;;;;;;4936242;28;19974;-88
2023/11/18 12:32:14;;;;;;;;;;;8.20;99.90;;;;;;4952953;28;19914;-86
2023/11/18 12:34:50;;;;;;;;;;;8.20;99.90;;;;;;4955840;28;19958;-86
2023/11/18 12:37:34;;;;;;;;;;;8.20;99.90;;;;;;4957815;28;19939;-86
2023/11/18 12:40:12;;;;;;;;;;;8.20;99.90;;;;;;4950288;29;19926;-88
2023/11/18 12:42:58;;;;;;;;;;;8.20;99.90;;;;;;4940703;29;19956;-88
2023/11/18 12:45:32;;;;;;;;;;;8.30;99.90;;;;;;4950883;29;20365;-87
2023/11/18 12:48:11;;;;;;;;;;;8.30;99.90;;;;;;4933929;29;20394;-87
2023/11/18 12:50:40;;;;;;;;;;;8.30;99.90;;;;;;4936154;29;19913;-87
2023/11/18 12:53:06;;;;;;;;;;;8.30;99.90;;;;;;4944614;29;19928;-88
2023/11/18 12:55:33;;;;;;;;;;;8.30;99.90;;;;;;4941419;28;19979;-87
2023/11/18 12:57:59;;;;;;;;;;;8.30;99.90;;;;;;4952763;29;19910;-87
2023/11/18 13:00:28;;;;;;;;;;;8.30;99.90;;;;;;4942063;29;20373;-88
2023/11/18 13:02:54;;;;;;;;;;;8.30;99.90;;;;;;4948078;29;19962;-87
2023/11/18 13:05:19;;;;;;;;;;;8.30;99.90;;;;;;4946585;28;19898;-86
2023/11/18 13:07:47;;;;;;;;;;;8.40;99.90;;;;;;4936504;29;19966;-87
2023/11/18 13:10:15;;;;;;;;;;;8.30;99.90;;;;;;4942526;29;19910;-88
2023/11/18 13:12:45;;;;;;;;;;;8.40;99.90;;;;;;4949098;28;19906;-87
2023/11/18 13:15:10;;;;;;;;;;;8.40;99.90;;;;;;4938780;29;19915;-88
2023/11/18 13:17:36;;;;;;;;;;;8.40;99.90;;;;;;4933646;29;19907;-86
2023/11/18 13:20:13;;;;;;;;;;;8.40;99.90;;;;;;4930471;29;20384;-87
2023/11/18 13:22:39;;;;;;;;;;;8.50;99.90;;;;;;4946474;28;19969;-87
2023/11/18 13:25:05;;;;;;;;;;;8.50;99.90;;;;;;4930516;29;20014;-88
2023/11/18 13:27:32;;;;;;;;;;;8.50;99.90;;;;;;4941327;28;19918;-88
2023/11/18 13:29:58;;;;;;;;;;;8.50;99.90;;;;;;4936826;29;19934;-87
2023/11/18 13:32:25;;;;;;;;;;;8.50;99.90;;;;;;4940495;29;19911;-88
2023/11/18 13:34:51;;;;;;;;;;;8.50;99.90;;;;;;4933277;29;19915;-89
2023/11/18 13:37:18;;;;;;;;;;;8.50;99.90;;;;;;4950136;28;20012;-86
2023/11/18 13:39:54;;;;;;;;;;;8.50;99.90;;;;;;4953580;28;19910;-86
2023/11/18 13:42:24;;;;;;;;;;;8.50;99.90;;;;;;4956296;29;19906;-87
2023/11/18 13:44:50;;;;;;;;;;;8.50;99.90;;;;;;4934627;29;19917;-88
2023/11/18 13:47:22;;;;;;;;;;;8.40;99.90;;;;;;4935553;29;19932;-87
2023/11/18 13:49:53;;;;;;;;;;;8.40;99.90;;;;;;4941788;28;20013;-87
2023/11/18 13:52:19;;;;;;;;;;;8.50;99.90;;;;;;4943487;29;20376;-88
2023/11/18 13:54:46;;;;;;;;;;;8.50;99.90;;;;;;4933228;29;19917;-88
2023/11/18 13:57:12;;;;;;;;;;;8.50;99.90;;;;;;4942555;28;19917;-87
2023/11/18 13:59:38;;;;;;;;;;;8.50;99.90;;;;;;4933041;29;20428;-88
2023/11/18 14:02:04;;;;;;;;;;;8.50;99.90;;;;;;4935311;29;19914;-87
2023/11/18 14:04:31;;;;;;;;;;;8.50;99.90;;;;;;4943955;29;19961;-89
2023/11/18 14:06:58;;;;;;;;;;;8.50;99.90;;;;;;4939094;29;19910;-87
2023/11/18 14:09:29;;;;;;;;;;;8.50;99.90;;;;;;4945043;29;19914;-88
2023/11/18 14:11:56;;;;;;;;;;;8.50;99.90;;;;;;4937494;29;19930;-88
2023/11/18 14:14:23;;;;;;;;;;;8.50;99.90;;;;;;4935148;29;20293;-88
2023/11/18 14:16:49;;;;;;;;;;;8.50;99.90;;;;;;4935999;29;19919;-87
2023/11/18 14:19:14;;;;;;;;;;;8.50;99.90;;;;;;4935700;29;19910;-89
2023/11/18 14:21:40;;;;;;;;;;;8.50;99.90;;;;;;4954651;28;20403;-88
2023/11/18 14:24:07;;;;;;;;;;;8.50;99.90;;;;;;4942092;29;19906;-88
2023/11/18 14:26:33;;;;;;;;;;;8.50;99.90;;;;;;4941849;28;19945;-87
2023/11/18 14:28:59;;;;;;;;;;;8.50;99.90;;;;;;4944339;28;20406;-89
2023/11/18 14:31:25;;;;;;;;;;;8.50;99.90;;;;;;4934412;29;20285;-88
2023/11/18 14:33:51;;;;;;;;;;;8.50;99.90;;;;;;4941294;29;19919;-88
2023/11/18 14:36:17;;;;;;;;;;;8.50;99.90;;;;;;4937682;29;19981;-89
2023/11/18 14:38:44;;;;;;;;;;;8.50;99.90;;;;;;4932750;29;19926;-88
2023/11/18 14:41:10;;;;;;;;;;;8.50;99.90;;;;;;4943187;29;19946;-88
2023/11/18 14:43:38;;;;;;;;;;;8.50;99.90;;;;;;4942040;28;19960;-88